Phoenix, Arizona
Traffic Map
Current Weather Conditions
Phoenix, Arizona
Broken Clouds
Broken Clouds
82°
Feels Like: 84°
Wind Chill: 82° Ceiling: 20000
Heat Index: 84° Visibility: 10mi
Dew Point: 67° Wind: 6mph
Humidity: 60% Direction: 220° (SW)
Pressure: 29.87in Gusts: 0mph
Raw Report DataKPHX 301251Z 22005KT 10SM FEW070 SCT110 BKN200 28/19 A2987 RMK AO2 SLP093 T02780194
Traffic Incident Summary
Active as of:
Severity:
Category:
InformationThere was an issue retrieving the traffic information for this location. Please try a different location or try again shortly.
Advertisements
Track Severe Weather on mobile